Time;durP1;ratioP1;P1;durP2;ratioP2;P2;SDS_P1;SDS_P2;PMS_P1;PMS_P2;Temp;Humidity;BMP_temperature;BMP_pressure;BME280_temperature;BME280_humidity;BME280_pressure;Samples;Min_cycle;Max_cycle;Signal;HPM_P1;HPM_P2
2023/02/09 00:00:06;;;;;;;19.40;7.20;;;;;;;-11.84;67.84;101491.20;105599;1259;63544;-25
2023/02/09 00:02:40;;;;;;;28.50;12.70;;;;;;;-11.46;69.05;101489.46;105665;1261;61157;-25
2023/02/09 00:05:09;;;;;;;54.10;24.60;;;;;;;-10.76;68.22;101489.34;105675;1253;74581;-26
2023/02/09 00:07:37;;;;;;;59.30;25.40;;;;;;;-10.65;67.27;101481.77;105761;1253;75814;-26
2023/02/09 00:10:06;;;;;;;50.50;22.70;;;;;;;-10.94;66.92;101476.45;105731;1254;74136;-25
2023/02/09 00:15:23;;;;;;;21.90;7.20;;;;;;;-11.71;68.23;101478.27;105495;1259;61600;-26
2023/02/09 00:17:53;;;;;;;30.20;11.20;;;;;;;-11.41;68.49;101483.50;105404;1254;74527;-26
2023/02/09 00:20:21;;;;;;;56.10;22.00;;;;;;;-10.73;67.42;101481.56;105694;1255;75646;-27
2023/02/09 00:22:50;;;;;;;58.10;24.10;;;;;;;-10.68;66.76;101482.65;105591;1257;74254;-26
2023/02/09 00:25:18;;;;;;;51.50;21.90;;;;;;;-11.05;66.10;101477.45;105505;1254;61155;-25
2023/02/09 00:27:47;;;;;;;49.10;24.10;;;;;;;-11.45;67.26;101473.41;105508;1260;61577;-25
2023/02/09 00:30:16;;;;;;;24.50;8.80;;;;;;;-11.82;67.94;101471.70;105506;1253;74450;-25
2023/02/09 00:32:46;;;;;;;24.70;10.20;;;;;;;-11.67;68.74;101468.86;105521;1259;75857;-25
2023/02/09 00:35:16;;;;;;;44.00;16.00;;;;;;;-10.98;68.35;101470.37;105683;1259;74160;-25
2023/02/09 00:37:44;;;;;;;54.60;24.80;;;;;;;-10.74;67.27;101472.93;105694;1259;61259;-25
2023/02/09 00:40:13;;;;;;;52.40;27.60;;;;;;;-10.93;67.76;101462.05;105659;1254;61067;-25
2023/02/09 00:42:42;;;;;;;51.80;26.40;;;;;;;-11.27;67.70;101455.15;105611;1254;74037;-25
2023/02/09 00:45:12;;;;;;;30.60;10.00;;;;;;;-11.67;68.30;101455.33;105675;1260;75594;-25
2023/02/09 00:47:41;;;;;;;14.10;6.20;;;;;;;-11.59;68.57;101458.52;105658;1254;74153;-24
2023/02/09 00:50:09;;;;;;;42.00;18.20;;;;;;;-10.88;67.71;101458.43;105650;1254;61112;-24
2023/02/09 00:52:39;;;;;;;61.00;26.30;;;;;;;-10.62;66.81;101455.53;105658;1264;61854;-25
2023/02/09 00:55:08;;;;;;;63.30;29.20;;;;;;;-10.80;66.67;101445.66;105647;1254;74304;-25
2023/02/09 00:57:37;;;;;;;69.80;30.00;;;;;;;-11.16;66.36;101436.34;105603;1260;75587;-25
2023/02/09 01:00:07;;;;;;;43.10;14.90;;;;;;;-11.60;66.96;101438.04;105676;1258;73133;-25
2023/02/09 01:02:38;;;;;;;22.10;9.40;;;;;;;-11.80;66.99;101438.11;105597;1254;63251;-24
2023/02/09 01:05:07;;;;;;;41.40;15.60;;;;;;;-11.16;67.34;101436.20;105511;1260;61500;-24
2023/02/09 01:07:38;;;;;;;40.90;17.90;;;;;;;-10.87;66.11;101434.65;105549;1254;74538;-27
2023/02/09 01:10:07;;;;;;;42.00;19.20;;;;;;;-11.16;65.38;101429.14;105510;1254;75524;-27
2023/02/09 01:12:38;;;;;;;34.00;17.50;;;;;;;-11.65;65.92;101428.43;105122;1260;74054;-25
2023/02/09 01:15:08;;;;;;;27.90;13.90;;;;;;;-12.14;66.51;101427.42;105314;1259;62415;-27
2023/02/09 01:17:37;;;;;;;21.60;9.50;;;;;;;-12.24;67.04;101422.63;105278;1259;61291;-26
2023/02/09 01:20:08;;;;;;;50.20;17.80;;;;;;;-11.57;66.99;101422.08;105468;1255;74584;-25
2023/02/09 01:22:37;;;;;;;53.10;20.80;;;;;;;-11.32;65.58;101411.16;105595;1262;74834;-26
2023/02/09 01:25:06;;;;;;;53.20;23.80;;;;;;;-11.51;65.76;101410.61;105646;1257;73781;-27
2023/02/09 01:27:36;;;;;;;56.70;25.60;;;;;;;-11.85;65.69;101408.40;105664;1260;61923;-26
2023/02/09 01:30:05;;;;;;;26.50;10.20;;;;;;;-12.17;66.33;101412.38;105585;1259;62047;-27
2023/02/09 01:32:35;;;;;;;22.80;8.20;;;;;;;-12.06;66.90;101405.86;105571;1259;74262;-27
2023/02/09 01:35:04;;;;;;;39.20;15.80;;;;;;;-11.33;66.20;101402.39;105467;1263;75824;-27
2023/02/09 01:37:33;;;;;;;42.60;20.70;;;;;;;-11.11;65.14;101397.49;105407;1260;74175;-27
2023/02/09 01:40:03;;;;;;;53.40;22.60;;;;;;;-11.33;65.26;101395.51;105615;1254;61106;-24
2023/02/09 01:42:32;;;;;;;44.20;19.40;;;;;;;-11.70;65.80;101394.33;105658;1262;61615;-26
2023/02/09 01:45:14;;;;;;;24.40;10.10;;;;;;;-12.09;66.25;101394.17;105648;1260;73521;-27
2023/02/09 01:47:46;;;;;;;16.30;7.10;;;;;;;-11.98;66.72;101382.78;105633;1259;75756;-27
2023/02/09 01:50:14;;;;;;;40.70;15.40;;;;;;;-11.35;66.30;101383.17;105490;1260;74498;-27
2023/02/09 01:52:43;;;;;;;44.20;19.70;;;;;;;-11.26;65.73;101385.11;105579;1259;61230;-27
2023/02/09 01:55:14;;;;;;;51.80;26.20;;;;;;;-11.48;65.98;101384.13;105763;1254;61870;-27
2023/02/09 01:57:47;;;;;;;57.60;26.00;;;;;;;-11.80;65.74;101380.98;105636;1262;74591;-27
2023/02/09 02:00:17;;;;;;;23.70;9.30;;;;;;;-12.17;66.07;101376.55;105189;1262;75781;-27
2023/02/09 02:02:59;;;;;;;22.30;10.90;;;;;;;-11.91;66.94;101368.05;105250;1260;71953;-26
2023/02/09 02:05:27;;;;;;;49.80;18.60;;;;;;;-11.16;65.79;101368.95;105473;1260;61163;-24
2023/02/09 02:07:59;;;;;;;58.90;28.10;;;;;;;-11.09;65.25;101369.93;105497;1259;61189;-25
2023/02/09 02:10:29;;;;;;;53.90;23.50;;;;;;;-11.35;65.32;101368.91;105499;1259;73539;-27
2023/02/09 02:12:58;;;;;;;58.00;26.40;;;;;;;-11.75;66.23;101364.62;105179;1262;75503;-27
2023/02/09 02:15:35;;;;;;;13.80;6.20;;;;;;;-12.12;65.95;101364.23;105367;1255;74159;-27
2023/02/09 02:18:16;;;;;;;22.20;7.70;;;;;;;-11.72;67.00;101364.75;105183;1263;63543;-27
2023/02/09 02:20:58;;;;;;;24.90;11.70;;;;;;;-11.01;66.42;101369.40;105395;1261;61554;-25
2023/02/09 02:23:43;;;;;;;46.90;22.20;;;;;;;-11.04;65.73;101368.10;105364;1259;74556;-25
2023/02/09 02:26:21;;;;;;;50.80;20.10;;;;;;;-11.41;65.76;101363.81;105369;1260;75721;-25
2023/02/09 02:29:08;;;;;;;32.90;14.10;;;;;;;-11.82;65.76;101360.08;105251;1263;74230;-27
2023/02/09 02:31:58;;;;;;;11.20;4.40;;;;;;;-11.95;66.23;101360.15;105420;1260;63546;-25
2023/02/09 02:34:39;;;;;;;25.60;12.90;;;;;;;-11.19;66.22;101357.91;105482;1260;61853;-25
2023/02/09 02:37:32;;;;;;;46.00;21.60;;;;;;;-10.93;65.74;101359.86;105425;1254;73502;-25
2023/02/09 02:40:11;;;;;;;41.90;19.20;;;;;;;-11.22;64.94;101365.65;105440;1262;75886;-25
2023/02/09 02:42:48;;;;;;;55.00;24.00;;;;;;;-11.66;65.35;101360.80;105632;1259;74052;-25
2023/02/09 02:45:22;;;;;;;11.60;5.40;;;;;;;-12.07;65.29;101363.95;105211;1262;63807;-25
2023/02/09 02:48:18;;;;;;;17.60;6.00;;;;;;;-11.78;65.90;101360.94;105242;1261;61884;-27
2023/02/09 02:50:52;;;;;;;35.70;16.50;;;;;;;-11.12;65.21;101366.10;105230;1261;74519;-25
2023/02/09 02:53:23;;;;;;;59.30;24.00;;;;;;;-11.16;64.75;101361.55;105240;1260;74897;-25
2023/02/09 02:55:53;;;;;;;54.30;24.00;;;;;;;-11.49;64.31;101355.23;105378;1259;74035;-25
2023/02/09 02:58:22;;;;;;;38.50;15.90;;;;;;;-11.91;64.21;101354.50;105233;1262;61174;-25
2023/02/09 03:00:51;;;;;;;13.70;6.20;;;;;;;-12.27;64.36;101350.11;105285;1261;61886;-25
2023/02/09 03:03:21;;;;;;;17.60;8.20;;;;;;;-11.90;64.97;101345.63;105273;1261;74362;-25
2023/02/09 03:05:50;;;;;;;35.10;14.50;;;;;;;-11.39;65.14;101348.11;105207;1263;75791;-25
2023/02/09 03:08:18;;;;;;;47.20;22.20;;;;;;;-11.42;65.09;101345.83;105426;1259;74078;-25
2023/02/09 03:10:47;;;;;;;54.40;25.30;;;;;;;-11.71;64.80;101341.63;105513;1254;61141;-25
2023/02/09 03:13:29;;;;;;;37.70;14.50;;;;;;;-12.09;64.70;101336.41;105513;1267;61849;-25
2023/02/09 03:16:07;;;;;;;28.00;8.20;;;;;;;-12.33;65.31;101334.42;105333;1254;74569;-25
2023/02/09 03:18:55;;;;;;;30.30;12.30;;;;;;;-11.65;65.65;101332.37;105364;1260;76054;-25
2023/02/09 03:21:33;;;;;;;43.30;18.20;;;;;;;-11.29;64.33;101330.96;105394;1254;71801;-25
2023/02/09 03:24:23;;;;;;;51.50;24.50;;;;;;;-11.49;64.39;101328.05;105473;1255;61237;-24
2023/02/09 03:27:01;;;;;;;33.20;15.70;;;;;;;-11.86;64.62;101327.56;105484;1258;61061;-25
2023/02/09 03:29:29;;;;;;;17.00;6.70;;;;;;;-12.23;65.26;101326.73;105369;1259;74348;-25
2023/02/09 03:31:58;;;;;;;25.10;9.50;;;;;;;-11.91;65.67;101328.52;105409;1259;74788;-27
2023/02/09 03:34:27;;;;;;;34.50;14.60;;;;;;;-11.25;65.08;101328.59;105488;1254;74249;-25
2023/02/09 03:36:55;;;;;;;47.00;20.90;;;;;;;-11.20;63.80;101326.48;105417;1254;61086;-25
2023/02/09 03:39:24;;;;;;;29.90;13.80;;;;;;;-11.52;63.78;101325.73;105433;1260;61578;-25
2023/02/09 03:41:53;;;;;;;43.80;19.20;;;;;;;-11.91;64.61;101314.95;105524;1258;75378;-25
2023/02/09 03:44:25;;;;;;;16.90;7.30;;;;;;;-12.28;65.26;101316.42;105392;1259;75844;-25
2023/02/09 03:47:01;;;;;;;16.60;9.10;;;;;;;-11.99;65.55;101316.09;105462;1254;74195;-25
2023/02/09 03:49:32;;;;;;;23.30;11.00;;;;;;;-11.33;64.69;101322.39;105187;1263;61122;-25
2023/02/09 03:52:01;;;;;;;26.30;12.80;;;;;;;-11.34;64.63;101321.52;105354;1254;61581;-25
2023/02/09 03:54:30;;;;;;;40.90;20.10;;;;;;;-11.64;64.51;101321.67;105530;1258;74067;-25
2023/02/09 03:56:59;;;;;;;27.30;11.80;;;;;;;-12.09;64.74;101313.12;105447;1254;75807;-25
2023/02/09 03:59:27;;;;;;;13.10;4.80;;;;;;;-12.36;65.41;101311.52;105458;1259;74165;-27
2023/02/09 04:01:57;;;;;;;14.60;8.50;;;;;;;-11.84;65.86;101309.40;105478;1255;61217;-24
2023/02/09 04:04:26;;;;;;;44.80;18.80;;;;;;;-11.35;64.85;101310.88;105407;1254;61634;-25
2023/02/09 04:06:55;;;;;;;44.30;21.60;;;;;;;-11.36;64.50;101314.20;105316;1260;75408;-25
2023/02/09 04:09:26;;;;;;;52.40;23.20;;;;;;;-11.62;65.34;101320.29;105517;1258;76037;-25
2023/02/09 04:11:55;;;;;;;34.20;16.60;;;;;;;-11.90;65.45;101320.18;105493;1257;74191;-25
2023/02/09 04:14:24;;;;;;;15.10;5.40;;;;;;;-12.03;65.84;101321.26;105376;1262;63404;-24
2023/02/09 04:16:54;;;;;;;17.10;8.30;;;;;;;-11.49;65.28;101324.37;105630;1257;61217;-25
2023/02/09 04:19:22;;;;;;;34.30;14.20;;;;;;;-11.09;64.20;101329.47;105670;1255;75305;-25
2023/02/09 04:21:51;;;;;;;56.20;26.00;;;;;;;-11.23;63.44;101337.08;105691;1259;75646;-25
2023/02/09 04:24:27;;;;;;;67.30;27.10;;;;;;;-11.53;64.21;101343.66;105587;1260;73889;-25
2023/02/09 04:26:55;;;;;;;44.80;17.40;;;;;;;-11.80;64.44;101339.58;105418;1258;61176;-25
2023/02/09 04:29:24;;;;;;;18.70;7.10;;;;;;;-12.00;64.66;101339.66;105375;1259;61902;-25
2023/02/09 04:31:53;;;;;;;24.80;9.10;;;;;;;-11.42;65.66;101338.26;105510;1260;75403;-26
2023/02/09 04:34:23;;;;;;;43.90;17.20;;;;;;;-10.80;64.62;101339.42;105416;1259;75909;-26
2023/02/09 04:36:55;;;;;;;25.40;13.00;;;;;;;-10.80;64.46;101337.58;105347;1254;74042;-26
2023/02/09 04:39:24;;;;;;;52.00;23.80;;;;;;;-11.09;64.22;101337.19;105507;1254;61163;-25
2023/02/09 04:41:53;;;;;;;44.30;19.40;;;;;;;-11.47;64.61;101329.96;105501;1260;61566;-25
2023/02/09 04:44:22;;;;;;;11.90;6.20;;;;;;;-11.79;65.64;101326.55;105478;1254;74888;-26
2023/02/09 04:46:50;;;;;;;16.40;7.50;;;;;;;-11.28;65.84;101344.08;105473;1254;75962;-27
2023/02/09 04:49:19;;;;;;;37.80;17.10;;;;;;;-10.59;65.17;101350.05;105393;1260;73194;-25
2023/02/09 04:51:47;;;;;;;55.70;20.20;;;;;;;-10.49;64.10;101352.27;105469;1254;61221;-25
2023/02/09 04:54:16;;;;;;;37.50;18.00;;;;;;;-10.75;63.94;101349.72;105450;1261;61694;-25
2023/02/09 04:56:45;;;;;;;39.40;17.00;;;;;;;-11.15;64.44;101347.52;105508;1254;74561;-25
2023/02/09 05:02:01;;;;;;;27.00;9.00;;;;;;;-11.31;65.39;101345.61;105635;1254;74031;-24
2023/02/09 05:04:31;;;;;;;48.90;17.40;;;;;;;-10.59;65.08;101350.69;105480;1254;61053;-25
2023/02/09 05:07:09;;;;;;;56.40;25.40;;;;;;;-10.38;64.90;101351.38;105455;1265;61573;-25
2023/02/09 05:09:37;;;;;;;101.90;40.60;;;;;;;-10.62;64.29;101351.93;105452;1255;75224;-26
2023/02/09 05:12:08;;;;;;;91.90;38.70;;;;;;;-10.98;64.55;101351.76;105464;1260;75534;-26
2023/02/09 05:14:37;;;;;;;24.60;11.30;;;;;;;-11.34;65.20;101348.66;105477;1255;73897;-26
2023/02/09 05:17:06;;;;;;;27.70;10.30;;;;;;;-11.33;66.09;101349.38;105392;1256;63210;-26
2023/02/09 05:19:35;;;;;;;27.30;13.80;;;;;;;-10.64;65.44;101348.48;105515;1264;61619;-26
2023/02/09 05:22:04;;;;;;;47.80;14.50;;;;;;;-10.37;64.50;101348.56;105342;1260;74852;-25
2023/02/09 05:24:33;;;;;;;47.10;19.90;;;;;;;-10.59;64.38;101355.08;105422;1260;76058;-25
2023/02/09 05:27:02;;;;;;;45.50;21.00;;;;;;;-10.94;64.76;101348.40;105439;1257;74167;-25
2023/02/09 05:29:31;;;;;;;28.60;13.70;;;;;;;-11.32;65.06;101346.75;105477;1254;61909;-27
2023/02/09 05:31:59;;;;;;;13.30;5.70;;;;;;;-11.51;65.85;101347.95;105541;1259;61856;-25
2023/02/09 05:34:28;;;;;;;25.90;9.50;;;;;;;-10.88;66.02;101343.09;105506;1254;74238;-25
2023/02/09 05:36:57;;;;;;;24.80;11.10;;;;;;;-10.37;64.74;101343.55;105483;1254;75599;-25
2023/02/09 05:39:26;;;;;;;49.90;20.70;;;;;;;-10.42;64.50;101341.50;105668;1258;74030;-25
2023/02/09 05:44:46;;;;;;;45.30;20.90;;;;;;;-11.03;65.20;101347.34;105572;1260;61550;-27
2023/02/09 05:47:16;;;;;;;21.50;9.00;;;;;;;-11.27;65.72;101349.48;105429;1260;74373;-27
2023/02/09 05:49:45;;;;;;;14.70;6.50;;;;;;;-10.81;66.22;101351.11;105162;1254;75692;-27
2023/02/09 05:52:14;;;;;;;34.20;13.20;;;;;;;-10.04;65.29;101349.52;105459;1254;74155;-26
2023/02/09 05:54:42;;;;;;;46.30;18.70;;;;;;;-10.04;63.96;101349.55;105507;1260;61301;-27
2023/02/09 05:57:10;;;;;;;31.90;14.90;;;;;;;-10.26;64.19;101347.83;105538;1257;61115;-28
2023/02/09 05:59:39;;;;;;;34.50;17.40;;;;;;;-10.60;64.54;101343.46;105451;1255;75289;-26
2023/02/09 06:02:07;;;;;;;31.80;11.80;;;;;;;-10.96;65.35;101344.81;105450;1261;75764;-25
2023/02/09 06:04:36;;;;;;;14.10;6.80;;;;;;;-11.01;66.37;101345.40;105476;1260;73950;-25
2023/02/09 06:07:05;;;;;;;23.90;10.40;;;;;;;-10.47;65.66;101346.33;105468;1254;61160;-25
2023/02/09 06:09:33;;;;;;;31.90;14.00;;;;;;;-9.85;65.56;101343.39;105556;1254;61611;-26
2023/02/09 06:12:02;;;;;;;22.50;11.20;;;;;;;-9.82;64.91;101338.77;105504;1254;75391;-25
2023/02/09 06:14:30;;;;;;;35.00;16.90;;;;;;;-10.05;64.72;101333.70;105497;1258;75841;-27
2023/02/09 06:17:01;;;;;;;40.10;20.80;;;;;;;-10.43;65.03;101328.85;105476;1255;73975;-25
2023/02/09 06:19:30;;;;;;;25.90;11.90;;;;;;;-10.71;65.54;101328.58;105473;1259;61628;-25
2023/02/09 06:21:59;;;;;;;20.40;9.60;;;;;;;-10.56;66.40;101322.63;105494;1254;61045;-25
2023/02/09 06:24:28;;;;;;;31.50;14.40;;;;;;;-9.69;66.14;101323.80;105512;1255;74059;-26
2023/02/09 06:26:57;;;;;;;32.50;15.70;;;;;;;-9.30;64.87;101325.59;105443;1260;76001;-25
2023/02/09 06:29:25;;;;;;;36.70;16.30;;;;;;;-9.32;64.20;101319.94;105598;1259;74087;-25
2023/02/09 06:31:54;;;;;;;42.70;20.20;;;;;;;-9.47;64.95;101320.73;105707;1254;61206;-25
2023/02/09 06:34:24;;;;;;;43.20;21.30;;;;;;;-9.58;65.45;101319.16;105482;1258;61830;-25
2023/02/09 06:36:58;;;;;;;23.60;10.50;;;;;;;-9.67;66.03;101319.30;105568;1254;75338;-25
2023/02/09 06:39:28;;;;;;;14.20;6.50;;;;;;;-9.75;65.87;101319.38;105498;1258;75644;-25
2023/02/09 06:41:57;;;;;;;19.10;8.50;;;;;;;-9.10;65.75;101316.19;105510;1254;74156;-25
2023/02/09 06:44:26;;;;;;;24.90;11.90;;;;;;;-8.33;64.85;101315.86;105397;1255;61215;-25
2023/02/09 06:46:55;;;;;;;21.20;10.50;;;;;;;-8.24;63.82;101311.09;105452;1261;61752;-25
2023/02/09 06:49:25;;;;;;;23.00;14.10;;;;;;;-8.49;63.16;101315.17;105437;1254;75527;-25
2023/02/09 06:51:54;;;;;;;43.30;19.30;;;;;;;-8.78;63.91;101319.64;105406;1259;75607;-25
2023/02/09 06:54:27;;;;;;;28.20;14.50;;;;;;;-8.99;64.57;101320.25;105448;1254;74300;-25
2023/02/09 06:56:56;;;;;;;27.60;8.90;;;;;;;-9.17;64.75;101314.58;105126;1263;61213;-25
2023/02/09 06:59:25;;;;;;;24.30;9.80;;;;;;;-9.30;65.62;101311.41;105403;1254;61946;-27
2023/02/09 07:01:53;;;;;;;15.90;7.30;;;;;;;-9.20;66.60;101309.77;105658;1254;75343;-26
2023/02/09 07:04:22;;;;;;;21.90;11.40;;;;;;;-8.33;66.65;101309.45;105674;1254;75629;-26
2023/02/09 07:06:51;;;;;;;16.80;8.60;;;;;;;-7.63;64.92;101315.45;105590;1257;74277;-26
2023/02/09 07:09:21;;;;;;;34.90;14.90;;;;;;;-7.54;63.85;101312.67;105628;1260;61432;-27
2023/02/09 07:11:54;;;;;;;33.60;16.30;;;;;;;-7.70;63.49;101310.53;105444;1259;61609;-26
2023/02/09 07:14:22;;;;;;;33.50;13.90;;;;;;;-7.90;64.22;101306.39;105456;1258;75506;-26
2023/02/09 07:16:51;;;;;;;28.30;13.60;;;;;;;-8.25;64.69;101303.81;105556;1255;75743;-26
2023/02/09 07:19:20;;;;;;;36.10;17.90;;;;;;;-8.43;65.48;101304.43;105690;1260;74028;-26
2023/02/09 07:21:49;;;;;;;41.60;18.10;;;;;;;-8.45;66.72;101314.13;105610;1259;61720;-26
2023/02/09 07:24:17;;;;;;;25.10;12.20;;;;;;;-8.51;66.27;101308.73;105700;1260;61835;-26
2023/02/09 07:26:46;;;;;;;19.60;8.70;;;;;;;-8.24;67.10;101311.09;105721;1254;75055;-26
2023/02/09 07:29:14;;;;;;;18.00;9.20;;;;;;;-7.09;66.73;101315.60;105602;1261;75614;-26
2023/02/09 07:31:43;;;;;;;24.30;11.30;;;;;;;-6.50;63.14;101311.57;105528;1254;73172;-26
2023/02/09 07:34:12;;;;;;;35.20;16.60;;;;;;;-6.29;63.58;101306.67;105572;1254;61126;-26
2023/02/09 07:36:40;;;;;;;40.30;19.20;;;;;;;-6.32;63.18;101302.55;105424;1259;61828;-26
2023/02/09 07:39:09;;;;;;;31.40;16.00;;;;;;;-6.45;63.67;101298.17;105409;1254;75119;-27
2023/02/09 07:41:38;;;;;;;39.40;16.70;;;;;;;-6.63;63.68;101294.19;105714;1255;74820;-26
2023/02/09 07:44:08;;;;;;;38.00;18.30;;;;;;;-6.83;63.85;101292.17;105651;1254;73922;-26
2023/02/09 07:46:37;;;;;;;26.60;14.20;;;;;;;-7.05;64.63;101289.75;105649;1253;61888;-26
2023/02/09 07:49:06;;;;;;;40.00;18.40;;;;;;;-7.25;64.53;101287.48;105505;1258;62395;-26
2023/02/09 07:51:35;;;;;;;38.00;17.00;;;;;;;-7.36;65.22;101288.23;105412;1254;75392;-26
2023/02/09 07:54:04;;;;;;;27.30;15.10;;;;;;;-7.37;65.95;101286.86;105513;1257;76233;-26
2023/02/09 07:56:37;;;;;;;32.60;16.70;;;;;;;-7.40;65.95;101284.89;105220;1254;73103;-26
2023/02/09 07:59:06;;;;;;;27.80;13.80;;;;;;;-7.40;66.97;101283.56;105493;1254;61680;-25
2023/02/09 08:01:34;;;;;;;23.70;12.30;;;;;;;-7.37;67.10;101277.23;105450;1254;60988;-26
2023/02/09 08:04:03;;;;;;;29.70;15.10;;;;;;;-7.47;67.11;101275.59;105491;1254;75446;-25
2023/02/09 08:06:40;;;;;;;22.90;12.40;;;;;;;-7.57;68.45;101270.09;105431;1260;75851;-26
2023/02/09 08:09:13;;;;;;;27.30;14.50;;;;;;;-7.50;68.46;101270.95;105203;1254;73209;-26
2023/02/09 08:11:48;;;;;;;37.60;17.90;;;;;;;-7.42;68.64;101272.69;105221;1253;61234;-25
2023/02/09 08:14:19;;;;;;;38.00;17.00;;;;;;;-7.29;68.52;101270.19;105453;1257;61058;-26
2023/02/09 08:16:48;;;;;;;28.70;14.30;;;;;;;-7.14;67.90;101271.44;104452;1253;1003515;-26
2023/02/09 08:19:20;;;;;;;32.40;15.90;;;;;;;-7.08;67.99;101268.22;103909;1254;1003341;-26
2023/02/09 08:21:48;;;;;;;35.10;14.40;;;;;;;-6.97;68.11;101267.30;105253;1262;73113;-26
2023/02/09 08:24:17;;;;;;;29.70;12.90;;;;;;;-6.82;68.51;101269.55;105514;1259;61971;-25
2023/02/09 08:26:46;;;;;;;32.60;16.10;;;;;;;-6.60;68.00;101271.60;105429;1259;62061;-26
2023/02/09 08:29:15;;;;;;;30.70;13.40;;;;;;;-6.37;67.95;101270.82;105494;1254;75413;-26
2023/02/09 08:31:44;;;;;;;23.40;11.00;;;;;;;-6.04;67.38;101271.04;105489;1258;75529;-26
2023/02/09 08:34:16;;;;;;;34.90;17.30;;;;;;;-5.79;67.16;101268.85;105428;1254;74892;-25
2023/02/09 08:36:45;;;;;;;39.30;18.40;;;;;;;-5.52;66.63;101265.52;105497;1259;61976;-26
2023/02/09 08:39:14;;;;;;;26.50;11.40;;;;;;;-5.21;66.01;101265.78;105447;1254;61086;-25
2023/02/09 08:41:42;;;;;;;33.80;16.60;;;;;;;-5.13;64.36;101263.23;105594;1254;75366;-26
2023/02/09 08:44:13;;;;;;;21.60;9.90;;;;;;;-5.01;64.87;101260.06;105647;1254;74803;-26
2023/02/09 08:46:41;;;;;;;11.00;6.80;;;;;;;-4.96;63.47;101256.41;105720;1254;74443;-25
2023/02/09 08:49:10;;;;;;;27.50;13.30;;;;;;;-4.99;63.78;101254.33;105737;1259;62329;-26
2023/02/09 08:51:39;;;;;;;23.20;11.60;;;;;;;-4.67;64.07;101252.33;105685;1258;61618;-26
2023/02/09 08:54:07;;;;;;;28.80;13.90;;;;;;;-4.47;62.82;101247.55;105621;1253;75459;-27
2023/02/09 08:56:37;;;;;;;32.00;15.20;;;;;;;-4.26;62.61;101249.23;105623;1258;75680;-26
2023/02/09 08:59:06;;;;;;;15.60;8.60;;;;;;;-3.83;62.29;101250.33;105659;1258;74107;-26
2023/02/09 09:01:35;;;;;;;15.00;8.70;;;;;;;-3.59;60.76;101256.08;105676;1254;61142;-26
2023/02/09 09:04:03;;;;;;;22.20;11.20;;;;;;;-3.26;59.01;101260.88;105566;1260;61848;-26
2023/02/09 09:06:33;;;;;;;27.70;13.10;;;;;;;-2.81;58.87;101254.01;105454;1254;75085;-26
2023/02/09 09:09:02;;;;;;;29.90;13.90;;;;;;;-2.25;58.38;101256.50;105396;1254;75918;-26
2023/02/09 09:11:30;;;;;;;25.60;11.60;;;;;;;-1.73;57.28;101256.10;105475;1254;74090;-26
2023/02/09 09:13:59;;;;;;;30.40;13.90;;;;;;;-1.47;55.39;101255.36;105517;1253;61084;-26
2023/02/09 09:16:31;;;;;;;25.20;13.50;;;;;;;-1.11;55.38;101252.06;105425;1254;61763;-26
2023/02/09 09:19:00;;;;;;;30.60;13.80;;;;;;;-0.85;54.19;101250.55;105531;1254;75475;-26
2023/02/09 09:21:29;;;;;;;25.70;14.10;;;;;;;-0.88;53.89;101250.05;105651;1254;75721;-26
2023/02/09 09:30:26;;;;;;;27.00;13.90;;;;;;;-0.87;53.89;101238.80;102663;1295;600207;-24
2023/02/09 09:32:55;;;;;;;24.80;12.60;;;;;;;-0.78;53.85;101238.80;104869;1267;61187;-26
2023/02/09 09:35:25;;;;;;;27.40;12.50;;;;;;;-0.63;53.86;101235.23;105184;1263;61219;-26
2023/02/09 09:37:56;;;;;;;18.20;9.70;;;;;;;-0.39;53.99;101235.90;105270;1263;73562;-27
2023/02/09 09:40:29;;;;;;;20.30;11.20;;;;;;;-0.25;53.08;101232.29;105186;1269;75799;-27
2023/02/09 09:43:07;;;;;;;20.90;10.00;;;;;;;-0.18;52.87;101233.98;103766;1263;1764667;-27
2023/02/09 09:45:37;;;;;;;17.00;7.60;;;;;;;-0.09;52.67;101234.83;105198;1261;61205;-26
2023/02/09 09:48:06;;;;;;;14.40;7.30;;;;;;;-0.01;52.11;101236.85;105301;1260;61071;-26
2023/02/09 09:50:36;;;;;;;15.10;8.10;;;;;;;-0.02;51.75;101236.52;105210;1260;73881;-27
2023/02/09 09:53:32;;;;;;;15.10;8.20;;;;;;;-0.02;51.59;101227.29;105297;1260;74567;-26
2023/02/09 09:56:06;;;;;;;15.10;7.90;;;;;;;0.10;51.72;101227.08;105204;1266;74486;-26
2023/02/09 09:58:37;;;;;;;13.70;7.90;;;;;;;0.19;51.30;101223.46;105125;1260;61160;-26
2023/02/09 10:01:12;;;;;;;13.60;8.50;;;;;;;0.23;50.76;101220.88;105194;1261;61714;-27
2023/02/09 10:03:41;;;;;;;12.30;6.50;;;;;;;0.31;50.61;101218.64;105251;1260;74328;-26
2023/02/09 10:06:20;;;;;;;13.40;7.00;;;;;;;0.26;50.48;101218.66;105294;1260;75607;-24
2023/02/09 10:08:56;;;;;;;12.80;7.10;;;;;;;0.22;50.34;101212.85;105254;1261;73951;-27
2023/02/09 10:11:29;;;;;;;9.70;6.30;;;;;;;0.29;50.36;101209.58;105155;1260;61176;-24
2023/02/09 10:13:57;;;;;;;11.90;6.70;;;;;;;0.26;50.34;101210.95;105145;1260;62234;-25
2023/02/09 10:16:29;;;;;;;11.00;6.10;;;;;;;0.18;49.59;101211.86;105256;1260;74279;-26
2023/02/09 10:19:02;;;;;;;12.90;7.30;;;;;;;0.02;48.95;101207.80;105111;1260;75822;-24
2023/02/09 10:21:33;;;;;;;19.20;7.10;;;;;;;-0.10;49.33;101200.33;105028;1261;73191;-27
2023/02/09 10:24:12;;;;;;;12.60;5.80;;;;;;;-0.13;49.34;101204.43;105017;1266;61161;-26
2023/02/09 10:26:41;;;;;;;12.10;5.50;;;;;;;-0.09;49.56;101197.95;105232;1266;61153;-25
2023/02/09 10:29:10;;;;;;;9.90;5.90;;;;;;;-0.18;48.54;101195.73;105205;1261;73508;-26
2023/02/09 10:31:44;;;;;;;6.80;3.70;;;;;;;-0.16;49.03;101194.88;105272;1264;75748;-26
2023/02/09 10:34:14;;;;;;;10.80;6.20;;;;;;;-0.23;49.53;101192.17;105110;1265;73009;-26
2023/02/09 10:36:46;;;;;;;10.10;5.50;;;;;;;-0.28;49.16;101183.98;105147;1261;61229;-26
2023/02/09 10:39:16;;;;;;;10.60;5.50;;;;;;;-0.29;49.79;101179.55;105070;1266;61089;-26
2023/02/09 10:41:50;;;;;;;12.70;5.80;;;;;;;-0.33;49.06;101176.83;105151;1260;74799;-26
2023/02/09 10:44:23;;;;;;;11.30;5.50;;;;;;;-0.29;48.41;101174.94;105212;1260;75775;-27
2023/02/09 10:47:18;;;;;;;13.00;5.80;;;;;;;-0.10;47.62;101170.11;105139;1268;74450;-25
2023/02/09 10:49:52;;;;;;;6.10;3.40;;;;;;;-0.06;48.06;101164.46;105178;1263;61219;-26
2023/02/09 10:52:22;;;;;;;8.60;3.90;;;;;;;-0.12;46.59;101162.27;105237;1263;61833;-26
2023/02/09 10:54:56;;;;;;;9.70;4.80;;;;;;;-0.13;47.15;101159.01;105220;1263;73288;-25
2023/02/09 10:57:27;;;;;;;7.70;4.60;;;;;;;0.01;47.47;101156.40;105253;1257;75845;-26
2023/02/09 10:59:57;;;;;;;5.60;2.90;;;;;;;0.07;46.53;101149.89;105440;1257;74204;-25
2023/02/09 11:02:29;;;;;;;8.40;4.10;;;;;;;0.12;45.99;101143.20;105356;1264;61199;-25
2023/02/09 11:04:58;;;;;;;7.20;3.20;;;;;;;0.11;44.90;101137.56;105504;1257;61138;-26
2023/02/09 11:07:31;;;;;;;6.40;3.50;;;;;;;-0.16;44.50;101129.99;105263;1258;74263;-27
2023/02/09 11:10:01;;;;;;;8.20;3.80;;;;;;;-0.35;45.14;101126.30;105278;1257;75550;-25
2023/02/09 11:12:30;;;;;;;7.40;3.60;;;;;;;-0.55;45.91;101120.89;105528;1257;73187;-25
2023/02/09 11:14:58;;;;;;;6.40;4.10;;;;;;;-0.54;45.64;101120.22;105626;1257;60994;-25
2023/02/09 11:17:41;;;;;;;6.80;2.70;;;;;;;-0.79;45.92;101122.46;105548;1262;61846;-25
2023/02/09 11:20:34;;;;;;;9.00;4.80;;;;;;;-0.68;46.25;101117.35;105169;1257;74167;-25
2023/02/09 11:23:22;;;;;;;9.50;4.40;;;;;;;-0.63;46.42;101118.70;105481;1257;75890;-25
2023/02/09 11:25:58;;;;;;;7.50;4.20;;;;;;;-0.54;45.92;101117.31;105521;1257;73890;-25
2023/02/09 11:28:43;;;;;;;7.70;4.40;;;;;;;-0.45;45.72;101115.06;105453;1257;61183;-25
2023/02/09 11:31:15;;;;;;;7.70;3.90;;;;;;;-0.28;45.03;101107.50;105291;1256;61087;-27
2023/02/09 11:34:12;;;;;;;4.70;2.80;;;;;;;-0.18;44.49;101104.73;105391;1257;73290;-25